createdAt,value
2019-04-21T00:01:52.190Z,44.90
2019-04-21T00:04:33.074Z,45.00
2019-04-21T00:07:14.455Z,45.60
2019-04-21T00:09:56.294Z,44.90
2019-04-21T00:12:18.081Z,45.00
2019-04-21T00:14:43.814Z,44.70
2019-04-21T00:17:07.849Z,44.70
2019-04-21T00:19:37.177Z,44.40
2019-04-21T00:22:19.417Z,44.20
2019-04-21T00:24:54.348Z,44.40
2019-04-21T00:27:28.337Z,44.40
2019-04-21T00:30:04.548Z,44.30
2019-04-21T00:32:31.749Z,44.10
2019-04-21T00:35:00.393Z,44.00
2019-04-21T00:37:42.607Z,43.90
2019-04-21T00:40:21.141Z,44.10
2019-04-21T00:42:48.450Z,44.60
2019-04-21T00:45:18.212Z,44.50
2019-04-21T00:48:02.282Z,44.70
2019-04-21T00:50:40.628Z,44.70
2019-04-21T00:53:13.016Z,44.40
2019-04-21T00:55:48.838Z,44.10
2019-04-21T01:01:01.596Z,43.10
2019-04-21T01:03:43.395Z,43.30
2019-04-21T01:06:08.194Z,43.60
2019-04-21T01:08:47.354Z,43.90
2019-04-21T01:11:19.516Z,44.20
2019-04-21T01:13:59.570Z,45.40
2019-04-21T01:16:28.809Z,45.30
2019-04-21T01:18:54.779Z,45.70
2019-04-21T01:21:14.030Z,46.10
2019-04-21T01:23:40.414Z,45.90
2019-04-21T01:26:22.662Z,45.90
2019-04-21T01:29:01.276Z,45.50
2019-04-21T01:31:35.034Z,45.00
2019-04-21T01:34:13.402Z,44.70
2019-04-21T01:36:38.776Z,44.60
2019-04-21T01:39:13.207Z,44.60
2019-04-21T01:41:49.470Z,44.20
2019-04-21T01:44:19.821Z,44.20
2019-04-21T01:46:45.838Z,44.10
2019-04-21T01:49:13.061Z,44.70
2019-04-21T01:52:03.889Z,44.50
2019-04-21T01:54:51.203Z,45.40
2019-04-21T01:57:33.413Z,45.00
2019-04-21T01:59:57.094Z,46.60
2019-04-21T02:02:36.374Z,47.80
2019-04-21T02:05:18.844Z,46.90
2019-04-21T02:07:54.724Z,46.40
2019-04-21T02:10:40.340Z,45.60
2019-04-21T02:13:03.532Z,45.40
2019-04-21T02:15:46.754Z,45.50
2019-04-21T02:18:14.758Z,45.40
2019-04-21T02:20:36.957Z,46.90
2019-04-21T02:23:33.500Z,47.50
2019-04-21T02:25:50.622Z,48.80
2019-04-21T02:28:32.175Z,48.80
2019-04-21T02:31:14.359Z,47.70
2019-04-21T02:36:24.718Z,45.80
2019-04-21T02:38:49.667Z,46.60
2019-04-21T02:41:08.938Z,46.90
2019-04-21T02:43:48.278Z,46.60
2019-04-21T02:46:27.742Z,46.50
2019-04-21T02:48:59.765Z,46.70
2019-04-21T02:51:27.824Z,46.30
2019-04-21T02:54:23.966Z,45.40
2019-04-21T02:56:48.881Z,45.20
2019-04-21T02:59:22.814Z,46.60
2019-04-21T03:01:56.827Z,47.10
2019-04-21T03:04:34.606Z,47.10
2019-04-21T03:07:21.602Z,47.20
2019-04-21T03:09:51.105Z,46.80
2019-04-21T03:12:20.218Z,45.90
2019-04-21T03:15:06.197Z,48.00
2019-04-21T03:17:43.634Z,47.50
2019-04-21T03:20:17.572Z,47.60
2019-04-21T03:22:57.321Z,48.20
2019-04-21T03:25:33.668Z,50.90
2019-04-21T03:28:00.683Z,52.50
2019-04-21T03:30:42.751Z,53.40
2019-04-21T03:38:21.765Z,53.40
2019-04-21T03:41:05.031Z,54.10
2019-04-21T03:44:02.948Z,54.30
2019-04-21T03:49:04.725Z,55.10
2019-04-21T03:51:48.739Z,54.70
2019-04-21T03:54:11.527Z,54.60
2019-04-21T03:57:06.482Z,55.30
2019-04-21T03:59:24.575Z,55.70
2019-04-21T04:02:06.533Z,55.80
2019-04-21T04:10:11.706Z,55.40
2019-04-21T04:12:57.742Z,55.40
2019-04-21T04:15:39.474Z,55.10
2019-04-21T04:18:07.168Z,54.70
2019-04-21T04:20:36.924Z,54.50
2019-04-21T04:23:08.109Z,54.80
2019-04-21T04:25:49.399Z,55.60
2019-04-21T04:31:22.247Z,55.30
2019-04-21T04:38:46.808Z,55.20
2019-04-21T04:44:13.581Z,57.20
2019-04-21T04:46:44.174Z,56.70
2019-04-21T04:49:27.975Z,56.80
2019-04-21T04:52:10.056Z,56.90
2019-04-21T04:57:42.816Z,56.30
2019-04-21T05:00:21.547Z,55.70
2019-04-21T05:02:40.342Z,55.70
2019-04-21T05:05:19.355Z,55.60
2019-04-21T05:08:01.160Z,56.00
2019-04-21T05:10:41.136Z,56.40
2019-04-21T05:13:02.229Z,56.80
2019-04-21T05:15:23.399Z,56.80
2019-04-21T05:20:36.533Z,57.70
2019-04-21T05:23:15.713Z,57.20
2019-04-21T05:25:44.011Z,57.60
2019-04-21T05:28:12.531Z,58.10
2019-04-21T05:31:08.687Z,57.40
2019-04-21T05:33:43.058Z,57.60
2019-04-21T05:36:09.151Z,57.10
2019-04-21T05:38:41.822Z,57.30
2019-04-21T05:41:17.602Z,57.60
2019-04-21T05:44:03.837Z,58.60
2019-04-21T05:46:32.371Z,58.20
2019-04-21T05:49:09.261Z,57.50
2019-04-21T05:51:39.836Z,57.10
2019-04-21T05:54:22.995Z,56.90
2019-04-21T06:02:38.485Z,56.10
2019-04-21T06:05:20.832Z,55.50
2019-04-21T06:07:40.679Z,55.30
2019-04-21T06:10:23.679Z,55.50
2019-04-21T06:15:47.300Z,54.20
2019-04-21T06:18:21.461Z,53.70
2019-04-21T06:20:47.726Z,53.90
2019-04-21T06:23:21.005Z,53.10
2019-04-21T06:26:11.831Z,53.00
2019-04-21T06:28:33.642Z,52.50
2019-04-21T06:33:43.463Z,52.10
2019-04-21T06:36:31.496Z,51.40
2019-04-21T06:39:06.500Z,51.50
2019-04-21T06:44:13.224Z,50.50
2019-04-21T06:46:35.485Z,49.80
2019-04-21T06:51:49.715Z,50.40
2019-04-21T06:54:27.819Z,48.50
2019-04-21T06:56:51.615Z,45.40
2019-04-21T06:59:26.528Z,44.70
2019-04-21T07:02:08.267Z,44.80
2019-04-21T07:04:50.173Z,45.10
2019-04-21T07:07:14.485Z,44.00
2019-04-21T07:09:52.742Z,43.40
2019-04-21T07:12:13.809Z,43.60
2019-04-21T07:14:59.546Z,43.00
2019-04-21T07:17:28.397Z,42.90
2019-04-21T07:22:37.498Z,43.80
2019-04-21T07:25:09.119Z,44.00
2019-04-21T07:27:43.168Z,44.60
2019-04-21T07:30:16.447Z,44.60
2019-04-21T07:32:51.347Z,43.60
2019-04-21T07:35:31.946Z,44.30
2019-04-21T07:38:10.239Z,43.20
2019-04-21T07:40:33.222Z,42.40
2019-04-21T07:43:09.043Z,42.10
2019-04-21T07:45:52.790Z,41.10
2019-04-21T07:51:25.385Z,40.60
2019-04-21T07:54:01.936Z,41.40
2019-04-21T07:56:15.968Z,39.70
2019-04-21T08:01:54.995Z,39.30
2019-04-21T08:04:08.424Z,39.30
2019-04-21T08:06:40.795Z,40.40
2019-04-21T08:09:07.423Z,39.80
2019-04-21T08:11:35.561Z,39.80
2019-04-21T08:14:19.557Z,40.40
2019-04-21T08:16:52.457Z,38.90
2019-04-21T08:19:18.997Z,40.40
2019-04-21T08:21:57.848Z,39.80
2019-04-21T08:24:24.199Z,39.30
2019-04-21T08:27:04.961Z,39.70
2019-04-21T08:29:40.837Z,38.20
2019-04-21T08:32:14.505Z,39.40
2019-04-21T08:34:44.438Z,38.50
2019-04-21T08:37:15.125Z,39.10
2019-04-21T08:39:59.374Z,38.80
2019-04-21T08:42:23.922Z,38.50
2019-04-21T08:44:52.430Z,38.80
2019-04-21T08:47:39.577Z,37.60
2019-04-21T08:50:15.365Z,35.60
2019-04-21T08:55:35.226Z,36.80
2019-04-21T08:58:25.331Z,37.10
2019-04-21T09:00:57.778Z,37.20
2019-04-21T09:03:43.050Z,37.10
2019-04-21T09:06:52.580Z,36.30
2019-04-21T09:09:08.148Z,35.90
2019-04-21T09:11:43.255Z,36.30
2019-04-21T09:14:13.852Z,35.70
2019-04-21T09:16:41.226Z,35.60
2019-04-21T09:19:23.380Z,36.30
2019-04-21T09:21:50.007Z,35.70
2019-04-21T09:24:24.664Z,35.30
2019-04-21T09:26:55.996Z,33.80
2019-04-21T09:29:35.391Z,30.40
2019-04-21T09:32:01.426Z,34.30
2019-04-21T09:34:36.910Z,33.00
2019-04-21T09:37:18.971Z,33.70
2019-04-21T09:39:41.499Z,33.10
2019-04-21T09:42:08.833Z,34.30
2019-04-21T09:44:42.703Z,33.60
2019-04-21T09:47:12.600Z,34.50
2019-04-21T09:49:47.306Z,34.20
2019-04-21T09:52:20.914Z,32.90
2019-04-21T09:54:59.572Z,33.10
2019-04-21T09:57:31.179Z,30.60
2019-04-21T10:00:04.114Z,30.20
2019-04-21T10:02:34.217Z,30.00
2019-04-21T10:04:59.503Z,31.00
2019-04-21T10:07:35.614Z,31.40
2019-04-21T10:10:08.360Z,31.10
2019-04-21T10:12:38.985Z,30.60
2019-04-21T10:15:23.645Z,32.00
2019-04-21T10:17:56.090Z,30.30
2019-04-21T10:20:26.647Z,30.20
2019-04-21T10:22:57.359Z,31.10
2019-04-21T10:25:30.530Z,28.80
2019-04-21T10:28:01.518Z,29.00
2019-04-21T10:30:32.954Z,27.80
2019-04-21T10:33:06.144Z,28.80
2019-04-21T10:35:37.061Z,29.70
2019-04-21T10:38:20.056Z,30.40
2019-04-21T10:40:41.479Z,29.90
2019-04-21T10:43:13.778Z,29.90
2019-04-21T10:45:44.122Z,30.20
2019-04-21T10:48:14.751Z,30.70
2019-04-21T10:51:07.109Z,28.50
2019-04-21T10:53:40.818Z,28.40
2019-04-21T10:56:20.140Z,29.40
2019-04-21T10:58:47.229Z,28.30
2019-04-21T11:01:23.118Z,28.50
2019-04-21T11:03:54.981Z,28.30
2019-04-21T11:06:28.602Z,27.60
2019-04-21T11:09:08.836Z,27.60
2019-04-21T11:11:40.036Z,28.20
2019-04-21T11:14:10.656Z,27.00
2019-04-21T11:16:43.030Z,26.30
2019-04-21T11:19:13.947Z,26.70
2019-04-21T11:21:44.939Z,26.60
2019-04-21T11:24:16.248Z,27.00
2019-04-21T11:26:47.888Z,26.60
2019-04-21T11:29:21.224Z,28.10
2019-04-21T11:31:54.748Z,26.80
2019-04-21T11:34:25.517Z,26.80
2019-04-21T11:36:56.353Z,26.00
2019-04-21T11:39:37.590Z,25.70
2019-04-21T11:42:01.789Z,26.10
2019-04-21T11:44:33.470Z,26.80
2019-04-21T11:47:14.334Z,27.10
2019-04-21T11:49:45.272Z,25.80
2019-04-21T11:52:16.573Z,24.90
2019-04-21T11:54:47.080Z,25.20
2019-04-21T11:57:24.861Z,25.50
2019-04-21T11:59:51.315Z,25.80
2019-04-21T12:02:23.546Z,25.70
2019-04-21T12:04:54.497Z,25.00
2019-04-21T12:07:27.382Z,25.50
2019-04-21T12:09:58.036Z,25.80
2019-04-21T12:12:29.592Z,26.10
2019-04-21T12:15:01.863Z,25.00
2019-04-21T12:17:34.222Z,25.20
2019-04-21T12:20:06.983Z,24.20
2019-04-21T12:22:39.110Z,23.70
2019-04-21T12:25:11.600Z,24.50
2019-04-21T12:27:43.768Z,25.10
2019-04-21T12:30:15.703Z,25.30
2019-04-21T12:32:54.075Z,24.60
2019-04-21T12:35:26.112Z,24.60
2019-04-21T12:38:00.496Z,24.50
2019-04-21T12:40:32.564Z,24.30
2019-04-21T12:43:06.474Z,24.50
2019-04-21T12:45:37.865Z,24.60
2019-04-21T12:48:11.381Z,25.10
2019-04-21T12:50:43.714Z,25.10
2019-04-21T12:53:23.555Z,24.50
2019-04-21T12:55:55.726Z,25.80
2019-04-21T12:58:29.115Z,24.30
2019-04-21T13:01:09.618Z,24.20
2019-04-21T13:03:43.699Z,24.60
2019-04-21T13:06:16.226Z,24.60
2019-04-21T13:08:59.443Z,25.10
2019-04-21T13:11:23.520Z,24.70
2019-04-21T13:13:55.418Z,25.50
2019-04-21T13:16:27.471Z,25.60
2019-04-21T13:18:59.554Z,25.10
2019-04-21T13:21:30.056Z,24.50
2019-04-21T13:24:01.510Z,25.20
2019-04-21T13:26:41.897Z,24.90
2019-04-21T13:29:10.536Z,24.90
2019-04-21T13:31:42.508Z,26.10
2019-04-21T13:34:15.790Z,25.40
2019-04-21T13:36:47.719Z,25.90
2019-04-21T13:39:50.370Z,24.90
2019-04-21T13:42:14.408Z,24.60
2019-04-21T13:44:37.085Z,25.20
2019-04-21T13:47:10.228Z,24.70
2019-04-21T13:49:41.518Z,24.70
2019-04-21T13:52:14.986Z,25.40
2019-04-21T13:54:47.339Z,25.30
2019-04-21T13:57:20.716Z,25.20
2019-04-21T13:59:51.359Z,25.30
2019-04-21T14:02:28.969Z,25.10
2019-04-21T14:05:01.111Z,25.00
2019-04-21T14:07:34.305Z,25.30
2019-04-21T14:10:10.429Z,26.30
2019-04-21T14:12:40.511Z,25.40
2019-04-21T14:15:14.517Z,26.10
2019-04-21T14:17:46.727Z,25.50
2019-04-21T14:20:17.551Z,25.50
2019-04-21T14:22:49.608Z,25.50
2019-04-21T14:25:21.639Z,25.90
2019-04-21T14:27:54.088Z,26.40
2019-04-21T14:30:26.187Z,26.30
2019-04-21T14:32:58.142Z,26.90
2019-04-21T14:35:29.360Z,25.40
2019-04-21T14:38:02.615Z,26.40
2019-04-21T14:40:35.184Z,26.60
2019-04-21T14:43:08.046Z,27.30
2019-04-21T14:45:58.965Z,26.30
2019-04-21T14:48:47.166Z,26.40
2019-04-21T14:51:38.883Z,26.00
2019-04-21T14:54:28.746Z,25.70
2019-04-21T14:56:59.373Z,27.10
2019-04-21T14:59:31.017Z,26.50
2019-04-21T15:02:02.216Z,26.70
2019-04-21T15:04:33.367Z,27.40
2019-04-21T15:07:05.577Z,27.20
2019-04-21T15:09:37.662Z,26.70
2019-04-21T15:12:10.035Z,26.80
2019-04-21T15:14:42.151Z,28.00
2019-04-21T15:17:15.384Z,28.30
2019-04-21T15:19:53.989Z,27.30
2019-04-21T15:22:18.528Z,27.90
2019-04-21T15:24:50.191Z,27.90
2019-04-21T15:27:23.042Z,27.90
2019-04-21T15:29:53.884Z,28.70
2019-04-21T15:32:24.536Z,29.00
2019-04-21T15:34:56.160Z,28.30
2019-04-21T15:37:28.177Z,28.50
2019-04-21T15:40:13.419Z,28.20
2019-04-21T15:42:32.609Z,29.00
2019-04-21T15:45:03.265Z,29.10
2019-04-21T15:47:33.821Z,28.80
2019-04-21T15:50:11.946Z,29.70
2019-04-21T15:52:40.030Z,29.60
2019-04-21T15:55:12.693Z,29.40
2019-04-21T15:57:56.668Z,29.50
2019-04-21T16:00:28.724Z,29.50
2019-04-21T16:03:00.413Z,29.40
2019-04-21T16:05:31.061Z,30.40
2019-04-21T16:08:02.239Z,30.10
2019-04-21T16:10:42.847Z,29.70
2019-04-21T16:13:05.796Z,29.70
2019-04-21T16:15:36.739Z,30.50
2019-04-21T16:18:07.189Z,30.10
2019-04-21T16:20:37.700Z,31.10
2019-04-21T16:23:08.776Z,31.10
2019-04-21T16:25:39.314Z,30.50
2019-04-21T16:28:11.006Z,30.90
2019-04-21T16:30:42.544Z,31.10
2019-04-21T16:33:14.294Z,31.10
2019-04-21T16:35:44.960Z,31.70
2019-04-21T16:38:15.500Z,30.40
2019-04-21T16:40:55.589Z,30.80
2019-04-21T16:43:20.028Z,31.50
2019-04-21T16:45:50.801Z,30.90
2019-04-21T16:48:23.331Z,31.60
2019-04-21T16:50:55.319Z,31.50
2019-04-21T16:53:37.602Z,32.00
2019-04-21T16:56:22.610Z,31.80
2019-04-21T16:58:55.024Z,32.20
2019-04-21T17:04:14.076Z,32.40
2019-04-21T17:06:45.024Z,32.60
2019-04-21T17:09:16.672Z,32.80
2019-04-21T17:11:48.526Z,32.80
2019-04-21T17:14:35.533Z,32.10
2019-04-21T17:17:20.518Z,32.50
2019-04-21T17:19:36.048Z,33.30
2019-04-21T17:22:15.825Z,33.00
2019-04-21T17:24:46.499Z,33.40
2019-04-21T17:27:17.419Z,33.80
2019-04-21T17:29:50.530Z,33.90
2019-04-21T17:32:26.191Z,33.80
2019-04-21T17:34:54.165Z,33.90
2019-04-21T17:37:30.314Z,34.50
2019-04-21T17:40:08.920Z,34.70
2019-04-21T17:43:01.601Z,35.40
2019-04-21T17:45:24.502Z,34.90
2019-04-21T17:48:02.395Z,35.30
2019-04-21T17:50:47.440Z,35.90
2019-04-21T17:53:33.787Z,36.30
2019-04-21T17:56:31.496Z,36.50
2019-04-21T17:59:08.272Z,36.50
2019-04-21T18:01:38.546Z,35.80
2019-04-21T18:04:12.630Z,36.40
2019-04-21T18:06:46.950Z,36.50
2019-04-21T18:09:28.619Z,36.50
2019-04-21T18:11:52.681Z,36.40
2019-04-21T18:14:09.489Z,36.20
2019-04-21T18:16:44.858Z,35.90
2019-04-21T18:19:12.983Z,36.20
2019-04-21T18:22:06.592Z,36.20
2019-04-21T18:24:48.078Z,36.10
2019-04-21T18:27:09.692Z,36.50
2019-04-21T18:29:44.454Z,36.80
2019-04-21T18:32:17.640Z,36.70
2019-04-21T18:34:57.547Z,36.80
2019-04-21T18:37:31.776Z,36.20
2019-04-21T18:40:05.350Z,36.00
2019-04-21T18:42:48.178Z,36.40
2019-04-21T18:48:05.150Z,36.50
2019-04-21T18:50:51.375Z,36.60
2019-04-21T18:53:41.418Z,36.40
2019-04-21T18:56:03.723Z,36.50
2019-04-21T18:58:42.628Z,36.10
2019-04-21T19:01:20.730Z,36.10
2019-04-21T19:03:47.676Z,35.80
2019-04-21T19:06:25.689Z,36.40
2019-04-21T19:09:11.684Z,36.60
2019-04-21T19:11:44.977Z,36.70
2019-04-21T19:14:29.179Z,36.80
2019-04-21T19:19:41.064Z,36.80
2019-04-21T19:22:02.614Z,37.10
2019-04-21T19:24:29.101Z,37.70
2019-04-21T19:29:51.929Z,37.90
2019-04-21T19:32:08.808Z,37.60
2019-04-21T19:34:24.555Z,37.70
2019-04-21T19:37:00.896Z,38.20
2019-04-21T19:39:41.695Z,38.50
2019-04-21T19:42:08.626Z,38.70
2019-04-21T19:44:47.024Z,38.00
2019-04-21T19:47:25.813Z,38.10
2019-04-21T19:49:55.149Z,37.20
2019-04-21T19:52:20.293Z,36.90
2019-04-21T19:54:43.157Z,36.80
2019-04-21T19:57:13.238Z,36.30
2019-04-21T19:59:48.471Z,36.40
2019-04-21T20:02:16.471Z,36.10
2019-04-21T20:04:55.581Z,36.10
2019-04-21T20:07:33.154Z,36.00
2019-04-21T20:10:23.731Z,35.40
2019-04-21T20:15:44.855Z,35.30
2019-04-21T20:18:14.425Z,35.50
2019-04-21T20:20:54.215Z,35.30
2019-04-21T20:23:31.695Z,35.30
2019-04-21T20:26:06.794Z,35.50
2019-04-21T20:28:46.790Z,35.50
2019-04-21T20:32:04.354Z,35.40
2019-04-21T20:34:17.721Z,36.10
2019-04-21T20:36:51.820Z,35.80
2019-04-21T20:39:12.135Z,35.90
2019-04-21T20:41:49.514Z,35.60
2019-04-21T20:44:37.375Z,36.00
2019-04-21T20:47:05.109Z,36.00
2019-04-21T20:49:41.973Z,36.10
2019-04-21T20:52:30.882Z,36.80
2019-04-21T20:54:55.164Z,36.50
2019-04-21T20:57:26.086Z,36.70
2019-04-21T21:00:02.385Z,36.80
2019-04-21T21:02:29.919Z,37.20
2019-04-21T21:05:02.984Z,37.40
2019-04-21T21:08:04.892Z,37.80
2019-04-21T21:10:16.874Z,38.30
2019-04-21T21:13:00.620Z,38.60
2019-04-21T21:15:24.595Z,39.10
2019-04-21T21:18:06.203Z,39.70
2019-04-21T21:20:32.491Z,39.60
2019-04-21T21:22:56.235Z,39.90
2019-04-21T21:25:39.679Z,40.50
2019-04-21T21:28:00.644Z,40.90
2019-04-21T21:30:35.321Z,41.40
2019-04-21T21:33:17.165Z,41.70
2019-04-21T21:35:41.006Z,42.20
2019-04-21T21:38:27.581Z,42.60
2019-04-21T21:40:49.894Z,43.00
2019-04-21T21:43:18.925Z,42.90
2019-04-21T21:45:50.239Z,43.00
2019-04-21T21:48:31.849Z,43.40
2019-04-21T21:50:57.233Z,43.60
2019-04-21T21:53:28.488Z,44.10
2019-04-21T21:55:56.276Z,44.00
2019-04-21T21:58:33.101Z,44.00
2019-04-21T22:01:02.989Z,44.10
2019-04-21T22:03:39.810Z,44.20
2019-04-21T22:06:19.207Z,44.00
2019-04-21T22:08:48.197Z,44.10
2019-04-21T22:11:20.011Z,44.10
2019-04-21T22:13:57.868Z,44.40
2019-04-21T22:16:38.854Z,44.70
2019-04-21T22:19:14.241Z,44.50
2019-04-21T22:21:49.131Z,44.90
2019-04-21T22:24:08.465Z,44.00
2019-04-21T22:26:31.701Z,44.30
2019-04-21T22:29:01.825Z,44.40
2019-04-21T22:31:37.056Z,44.80
2019-04-21T22:34:10.568Z,45.30
2019-04-21T22:36:48.856Z,45.60
2019-04-21T22:39:30.662Z,46.40
2019-04-21T22:41:48.472Z,46.10
2019-04-21T22:44:18.865Z,46.20
2019-04-21T22:47:03.848Z,46.10
2019-04-21T22:49:23.974Z,46.00
2019-04-21T22:51:55.807Z,46.20
2019-04-21T22:54:34.506Z,46.30
2019-04-21T22:57:07.281Z,46.30
2019-04-21T22:59:34.179Z,46.60
2019-04-21T23:02:13.615Z,46.50
2019-04-21T23:04:43.753Z,46.30
2019-04-21T23:07:13.583Z,45.80
2019-04-21T23:09:40.807Z,45.70
2019-04-21T23:12:12.473Z,46.10
2019-04-21T23:14:53.438Z,46.10
2019-04-21T23:17:34.053Z,45.80
2019-04-21T23:20:13.264Z,45.50
2019-04-21T23:22:46.492Z,45.50
2019-04-21T23:25:07.477Z,45.40
2019-04-21T23:27:38.706Z,45.40
2019-04-21T23:30:21.352Z,45.30
2019-04-21T23:32:36.311Z,45.30
2019-04-21T23:35:09.062Z,45.60
2019-04-21T23:37:41.658Z,45.90
2019-04-21T23:40:13.134Z,45.80
2019-04-21T23:42:42.434Z,46.40
2019-04-21T23:45:12.294Z,47.00
2019-04-21T23:47:57.801Z,46.90
2019-04-21T23:50:27.739Z,46.70
2019-04-21T23:52:47.781Z,46.50
2019-04-21T23:55:21.467Z,46.50
2019-04-21T23:57:56.045Z,46.60
